Tropical Cyclones
[Index]
Main Index Home Page Stock Weather Photos Extreme Storms Discussion Storm News and Storm Chasing Reports Tropical Cyclones / Hurricanes / Typhoons Weather Data and Links Wild Fires / Bushfires Weather Observation Techniques Weather Picture Catalogue Tornado Pictures and Reports Stock Video Footage and DVDs for sale
Season 2008-2009 Tropical Cyclone KEN Track Map
Season 2008-2009 Summaries: [BoM-AU] [JTWC-AU] [JTWC-SIO] [JTWC-SPAC] [JTWC-SH]
<<- Previous TC | JTWC 2008-2009 Season | Next TC ->>

click for intensity scale information  Lat/long Grid: Show Hide

 Date Labels: Show Hide

Joint Typhoon Warning Centre Cyclone Data

Name: KEN

16 Mar 2009 00:00 UTC to 20 Mar 2009 12:00 UTC

    date/time    lat    long     hPa   cat  kts
2009-03-16 00   17.7   163.2W   1007         20          
2009-03-16 06   18.3   163.2W   1004         25          
2009-03-16 12   18.9   163.1W   1000         30          
2009-03-16 18   20.0   163.0W    996         35          
2009-03-17 00   21.2   162.8W    996         35          
2009-03-17 06   21.9   162.7W    996         35          
2009-03-17 12   22.3   162.8W    996         35          
2009-03-17 18   22.7   162.9W    996         35          
2009-03-18 00   23.1   162.5W    996         35          
2009-03-18 06   23.4   161.9W    996         35          
2009-03-18 12   23.9   161.4W    996         35          
2009-03-18 18   24.7   160.9W    985    1    50          
2009-03-19 00   25.8   159.8W    985    1    50          
2009-03-19 06   27.2   158.8W    985    1    50          
2009-03-19 12   29.2   157.4W    985    1    50          
2009-03-19 18   31.8   155.4W    985    1    50          
2009-03-19 18   31.8   155.4W    985    1    50          
2009-03-20 00   35.0   152.9W    978    2    60          
2009-03-20 00   35.0   152.9W    978    2    60          
2009-03-20 06   38.2   150.3W    978    2    60          
2009-03-20 12   41.0   147.0W    978    2    60          
Winds are 1-min average.

Tropical cyclone tracks developed by Michael Bath using data from the Joint Typhoon Warning Centre Best Tracks and Google Maps.


[Australian Severe Weather index] [Copyright Notice] [Email Contacts] [Search This Site] [Privacy Policy]
Document: tropical_cyclone_ken.htm Updated: 28 June 2017